AirNav   Air Wisconsin Up To $57,000 Bonus
 
 862 users online  

3IS8 Rinkenberger Airport
Bradford, Illinois, USA

GOING TO BRADFORD?


FAA INFORMATION EFFECTIVE 01 DECEMBER 2022

Location

FAA Identifier: 3IS8
Lat/Long: 41-13-51.1340N 089-36-56.3460W
41-13.852233N 089-36.939100W
41.2308706,-89.6156517
(estimated)
Elevation: 808 ft. / 246.3 m (surveyed)
Variation: 01E (1985)
From city: 3 miles NE of BRADFORD, IL
Time zone: UTC -6 (UTC -5 during Daylight Saving Time)
Zip code: 61421

Airport Operations

Airport use: Private use. Permission required prior to landing
Activation date: 07/1944
Control tower: no
ARTCC: CHICAGO CENTER
FSS: KANKAKEE FLIGHT SERVICE STATION
Attendance: UNATNDD
Pattern altitude: 1608 ft. MSL
Wind indicator: yes
Segmented circle: no

Airport Communications

WX AWOS-3 at C75 (16 nm SE): 119.425 (309-246-3089)

Nearby radio navigation aids

VOR radial/distance  VOR name  Freq  Var
BDFr344/4.4BRADFORD VORTAC114.7000E
PIAr010/34.0PEORIA VORTAC115.2004E

Airport Services

Airframe service: NONE
Powerplant service: NONE
Bottled oxygen: NONE
Bulk oxygen: NONE

Runway Information

Runway 8/26

Dimensions: 2614 x 190 ft. / 797 x 58 m
Surface: turf
RUNWAY 8  RUNWAY 26
Traffic pattern: leftleft
Runway end identifier lights: nono
Obstructions: pline, 28 ft. from runwayfence, 4 ft. from runway

Runway 18/36

Dimensions: 1932 x 190 ft. / 589 x 58 m
Surface: turf
RUNWAY 18  RUNWAY 36
Traffic pattern: leftleft
Runway end identifier lights: nono
Obstructions: tower, marked and lightedfence, 6 ft. from runway

Airport Ownership and Management from official FAA records

Ownership: Privately-owned
Owner: GLEN RINKENBERGER
12912 600 NORTH AVE
BRADFORD, IL 61421
Phone 309-897-8160
OTR CTC: PETER ANDRIOTIS 815-546-4572
Manager: GLEN RINKENBERGER
12912 600 NORTH AVE
BRADFORD, IL 61421
Phone 309-897-8160

Airport Operational Statistics

Aircraft based on the field: 3
Single engine airplanes: 2
Ultralights: 1
    

Additional Remarks

THREE 112 FT MKD & LGTD TWRS INBOARD OF RWY 08 THR, L OF CNTRLN.
FOR CD CTC CHICAGO ARTCC AT 630-906-8921.

Instrument Procedures

There are no published instrument procedures at 3IS8.

Some nearby airports with instrument procedures:

KEZI - Kewanee Municipal Airport (16 nm W)
C75 - Marshall County Airport (16 nm SE)
KVYS - Illinois Valley Regional Airport-Walter A Duncan Field (22 nm E)
3MY - Mount Hawley Auxiliary Airport (26 nm S)
KSQI - Whiteside County Airport/Jos H Bittorf Field (31 nm N)
 
Loc | Ops | Rwys | IFR | FBO | Links
Com | Nav | Svcs | Stats | Notes
Area around 3IS8 (Rinkenberger Airport)
 
Road maps at: MapQuest Bing Google
 
Aerial photo
No photo
 
Sectional chart

 
Airport distance calculator
Flying to Rinkenberger Airport? Find the distance to fly.

From to 3IS8

Sunrise and sunset
Times for 07-Dec-2022
 Local
(UTC-6)
 Zulu
(UTC)
Morning civil twilight06:4112:41
Sunrise07:1213:12
Sunset16:2822:28
Evening civil twilight16:5922:59

Current date and time
Zulu (UTC)  07-Dec-2022 13:12:02
Local (UTC-6)  07-Dec-2022 07:12:02
 
METAR
KC75 
17nm SE 
071255Z AUTO 00000KT 4SM BR OVC012 03/03 A3020 RMK AO2 T00300028
KVYS 
22nm E 
071255Z AUTO 00000KT 5SM BR OVC012 04/02 A3020 RMK AO2 T00370017
KSQI 
31nm N 
071256Z AUTO 22004KT 4SM BR OVC018 01/00 A3020 RMK AO2 SLP094 T00060000 FZRANO
TAF
KPIA 
34nm S 
071121Z 0712/0812 VRB03KT 1SM BR OVC004 TEMPO 0712/0714 1/2SM FG VV002 FM071600 VRB03KT 4SM BR BKN012 FM071800 31005KT P6SM BKN018 FM080000 04003KT P6SM SCT180 BKN250 FM080800 08008KT P6SM BKN180
NOTAMs
Click for the latest NOTAMs
NOTAMs are issued by the DoD/FAA and will open in a separate window not controlled by AirNav.

 

 
 

Would you like to see your business listed on this page?

 If your business provides an interesting product or service to pilots, flight crews, aircraft, or users of the Rinkenberger Airport, you should consider listing it here.  To start the listing process, click on the button below
 
Add a business
 

Other Pages about Rinkenberger Airport

Update a link
 
Copyright © AirNav, LLC. All rights reserved. Privacy Policy  Contact